Back to Top

Language: 

My Weather Underground Personal Weather Station Historical Data with Graphs...

Delerius Weather Station Historical Data
Daily Summary for May 7, 2017 Units:  English    Metric   Both
« Previous Day
Next Day »
Daily Weekly Monthly Yearly Custom
  High: Low: Average:
Temperature: 57.7 °F 42.8 °F 48.7 °F
Dew Point: 47.6 °F 38.7 °F 42.9 °F
Humidity: 92 % 67 % 81 %
Wind Speed: 10.0 mph 1.0 mph 5.5 mph
Wind Gust: 21.0 mph - -
Wind:- - South
Pressure: 30.31 in 30.08 in -
Precipitation: 0.00 in    
Historical Graphs
 
 
Tabular Data for May 7, 2017
Time Temperature Dew Point Pressure Wind Wind Speed Wind Gust Humidity Rainfall Rate (Hourly) solar Conditions
00:02 48.9 °F 44.6 °F 30.08 in NNW 1.0 mph 6.0 mph 85 % 0.00 in 0 W/m2
00:07 48.9 °F 44.3 °F 30.08 in North 3.0 mph 12.0 mph 84 % 0.00 in 0 W/m2
00:12 48.6 °F 43.9 °F 30.08 in North 6.0 mph 12.0 mph 84 % 0.00 in 0 W/m2
00:17 48.2 °F 43.6 °F 30.09 in North 7.0 mph 13.0 mph 84 % 0.00 in 0 W/m2
00:22 47.8 °F 43.5 °F 30.09 in North 7.0 mph 14.0 mph 85 % 0.00 in 0 W/m2
00:27 47.7 °F 43.7 °F 30.09 in North 7.0 mph 15.0 mph 86 % 0.00 in 0 W/m2
00:32 47.3 °F 43.3 °F 30.09 in North 8.0 mph 15.0 mph 86 % 0.00 in 0 W/m2
00:37 46.9 °F 43.3 °F 30.09 in North 6.0 mph 14.0 mph 87 % 0.00 in 0 W/m2
00:42 46.9 °F 43.6 °F 30.09 in North 5.0 mph 10.0 mph 88 % 0.00 in 0 W/m2
00:47 46.8 °F 43.4 °F 30.09 in North 5.0 mph 11.0 mph 88 % 0.00 in 0 W/m2
00:52 46.6 °F 43.2 °F 30.09 in North 5.0 mph 11.0 mph 88 % 0.00 in 0 W/m2
00:57 46.2 °F 42.9 °F 30.09 in North 5.0 mph 12.0 mph 88 % 0.00 in 0 W/m2
01:02 46.2 °F 43.2 °F 30.09 in North 5.0 mph 12.0 mph 89 % 0.00 in 0 W/m2
01:07 46.0 °F 43.0 °F 30.09 in North 5.0 mph 9.0 mph 89 % 0.00 in 0 W/m2
01:13 45.9 °F 42.8 °F 30.09 in North 5.0 mph 10.0 mph 89 % 0.00 in 0 W/m2
01:18 45.7 °F 42.6 °F 30.09 in North 4.0 mph 10.0 mph 89 % 0.00 in 0 W/m2
01:23 45.5 °F 42.7 °F 30.09 in North 4.0 mph 10.0 mph 90 % 0.00 in 0 W/m2
01:28 45.3 °F 42.6 °F 30.09 in NNW 5.0 mph 11.0 mph 90 % 0.00 in 0 W/m2
01:33 45.1 °F 42.4 °F 30.09 in North 6.0 mph 11.0 mph 90 % 0.00 in 0 W/m2
01:38 45.0 °F 42.2 °F 30.10 in North 5.0 mph 10.0 mph 90 % 0.00 in 0 W/m2
01:43 44.8 °F 42.0 °F 30.10 in North 6.0 mph 10.0 mph 90 % 0.00 in 0 W/m2
01:48 44.6 °F 41.8 °F 30.10 in NNW 5.0 mph 11.0 mph 90 % 0.00 in 0 W/m2
01:53 44.4 °F 41.7 °F 30.09 in NNW 5.0 mph 11.0 mph 90 % 0.00 in 0 W/m2
01:58 44.2 °F 41.5 °F 30.10 in NNW 4.0 mph 9.0 mph 90 % 0.00 in 0 W/m2
02:03 44.2 °F 41.5 °F 30.10 in NNW 3.0 mph 9.0 mph 90 % 0.00 in 0 W/m2
02:08 44.1 °F 41.3 °F 30.10 in NW 3.0 mph 9.0 mph 90 % 0.00 in 0 W/m2
02:13 43.9 °F 41.1 °F 30.10 in NW 1.0 mph 6.0 mph 90 % 0.00 in 0 W/m2
02:18 43.7 °F 41.0 °F 30.10 in NW 1.0 mph 6.0 mph 90 % 0.00 in 0 W/m2
02:23 43.5 °F 41.1 °F 30.10 in NW 2.0 mph 6.0 mph 91 % 0.00 in 0 W/m2
02:28 43.3 °F 40.9 °F 30.10 in NW 1.0 mph 6.0 mph 91 % 0.00 in 0 W/m2
02:33 43.2 °F 40.7 °F 30.10 in NW 2.0 mph 7.0 mph 91 % 0.00 in 0 W/m2
02:38 43.2 °F 40.7 °F 30.10 in NW 3.0 mph 7.0 mph 91 % 0.00 in 0 W/m2
02:43 43.2 °F 41.0 °F 30.10 in NW 3.0 mph 7.0 mph 92 % 0.00 in 0 W/m2
02:48 43.2 °F 41.0 °F 30.10 in NW 3.0 mph 8.0 mph 92 % 0.00 in 0 W/m2
02:53 43.2 °F 41.0 °F 30.10 in NW 3.0 mph 8.0 mph 92 % 0.00 in 0 W/m2
02:58 43.2 °F 41.0 °F 30.11 in NW 3.0 mph 8.0 mph 92 % 0.00 in 0 W/m2
03:03 43.2 °F 41.0 °F 30.11 in NNW 2.0 mph 7.0 mph 92 % 0.00 in 0 W/m2
03:08 43.3 °F 41.2 °F 30.11 in NNW 1.0 mph 5.0 mph 92 % 0.00 in 0 W/m2
03:09 43.2 °F 41.0 °F 30.11 in NNW 1.0 mph 5.0 mph 92 % 0.00 in 0 W/m2
03:14 43.3 °F 41.2 °F 30.11 in NW 2.0 mph 7.0 mph 92 % 0.00 in 0 W/m2
03:19 43.3 °F 41.2 °F 30.11 in NW 3.0 mph 7.0 mph 92 % 0.00 in 0 W/m2
03:24 43.3 °F 41.2 °F 30.11 in NW 2.0 mph 7.0 mph 92 % 0.00 in 0 W/m2
03:29 43.3 °F 41.2 °F 30.11 in NW 2.0 mph 7.0 mph 92 % 0.00 in 0 W/m2
03:34 43.3 °F 41.2 °F 30.11 in NNW 2.0 mph 8.0 mph 92 % 0.00 in 0 W/m2
03:39 43.3 °F 41.2 °F 30.11 in NNW 3.0 mph 8.0 mph 92 % 0.00 in 0 W/m2
03:44 43.3 °F 41.2 °F 30.11 in NNW 4.0 mph 9.0 mph 92 % 0.00 in 0 W/m2
03:49 43.3 °F 41.2 °F 30.11 in NNW 3.0 mph 9.0 mph 92 % 0.00 in 0 W/m2
03:54 43.2 °F 41.0 °F 30.11 in NNW 3.0 mph 8.0 mph 92 % 0.00 in 0 W/m2
03:59 43.2 °F 40.7 °F 30.11 in NNW 3.0 mph 9.0 mph 91 % 0.00 in 0 W/m2
04:04 43.2 °F 40.7 °F 30.11 in NNW 4.0 mph 9.0 mph 91 % 0.00 in 0 W/m2
04:09 43.2 °F 40.7 °F 30.11 in NNW 3.0 mph 7.0 mph 91 % 0.00 in 0 W/m2
04:14 43.0 °F 40.5 °F 30.11 in NW 3.0 mph 6.0 mph 91 % 0.00 in 0 W/m2
04:19 43.0 °F 40.5 °F 30.11 in NW 3.0 mph 6.0 mph 91 % 0.00 in 0 W/m2
04:24 43.0 °F 40.5 °F 30.12 in NW 3.0 mph 7.0 mph 91 % 0.00 in 0 W/m2
04:29 42.8 °F 40.4 °F 30.12 in NW 4.0 mph 9.0 mph 91 % 0.00 in 0 W/m2
04:34 42.8 °F 40.4 °F 30.12 in NW 4.0 mph 9.0 mph 91 % 0.00 in 0 W/m2
04:39 42.8 °F 40.4 °F 30.12 in NW 4.0 mph 11.0 mph 91 % 0.00 in 0 W/m2
04:44 42.8 °F 40.4 °F 30.12 in NW 4.0 mph 11.0 mph 91 % 0.00 in 0 W/m2
04:49 42.8 °F 40.4 °F 30.12 in NW 3.0 mph 8.0 mph 91 % 0.00 in 0 W/m2
04:54 42.8 °F 40.4 °F 30.12 in NW 3.0 mph 8.0 mph 91 % 0.00 in 0 W/m2
04:59 42.8 °F 40.4 °F 30.12 in NW 3.0 mph 10.0 mph 91 % 0.00 in 0 W/m2
05:04 42.8 °F 40.4 °F 30.12 in NW 4.0 mph 10.0 mph 91 % 0.00 in 0 W/m2
05:09 43.0 °F 40.5 °F 30.12 in NW 3.0 mph 9.0 mph 91 % 0.00 in 0 W/m2
05:14 43.0 °F 40.5 °F 30.12 in NW 3.0 mph 8.0 mph 91 % 0.00 in 0 W/m2
05:19 43.0 °F 40.5 °F 30.12 in NW 3.0 mph 8.0 mph 91 % 0.00 in 0 W/m2
05:24 43.0 °F 40.5 °F 30.12 in NW 4.0 mph 9.0 mph 91 % 0.00 in 0 W/m2
05:29 43.2 °F 40.4 °F 30.12 in NW 5.0 mph 10.0 mph 90 % 0.00 in 5 W/m2
05:34 43.2 °F 40.4 °F 30.13 in NW 5.0 mph 10.0 mph 90 % 0.00 in 5 W/m2
05:39 43.2 °F 40.4 °F 30.13 in NW 4.0 mph 10.0 mph 90 % 0.00 in 7 W/m2
05:44 43.2 °F 40.4 °F 30.13 in NW 4.0 mph 10.0 mph 90 % 0.00 in 9 W/m2
05:49 43.2 °F 40.4 °F 30.14 in NNW 4.0 mph 9.0 mph 90 % 0.00 in 9 W/m2
05:54 43.3 °F 40.6 °F 30.14 in NNW 4.0 mph 10.0 mph 90 % 0.00 in 9 W/m2
05:59 43.3 °F 40.6 °F 30.14 in NW 5.0 mph 13.0 mph 90 % 0.00 in 9 W/m2
06:04 43.3 °F 40.6 °F 30.14 in NW 5.0 mph 13.0 mph 90 % 0.00 in 12 W/m2
06:09 43.3 °F 40.3 °F 30.14 in NNW 4.0 mph 7.0 mph 89 % 0.00 in 12 W/m2
06:14 43.3 °F 40.6 °F 30.14 in NNW 3.0 mph 8.0 mph 90 % 0.00 in 14 W/m2
06:19 43.5 °F 40.8 °F 30.14 in NW 4.0 mph 9.0 mph 90 % 0.00 in 16 W/m2
06:24 43.5 °F 40.5 °F 30.14 in NW 4.0 mph 9.0 mph 89 % 0.00 in 14 W/m2
06:30 43.5 °F 40.5 °F 30.15 in NW 4.0 mph 9.0 mph 89 % 0.00 in 14 W/m2
06:34 43.5 °F 40.5 °F 30.15 in NW 4.0 mph 9.0 mph 89 % 0.00 in 14 W/m2
06:39 43.5 °F 40.5 °F 30.15 in NW 4.0 mph 8.0 mph 89 % 0.00 in 32 W/m2
06:44 43.7 °F 40.7 °F 30.15 in NW 4.0 mph 9.0 mph 89 % 0.00 in 42 W/m2
06:50 43.9 °F 40.8 °F 30.16 in NW 3.0 mph 9.0 mph 89 % 0.00 in 44 W/m2
06:55 43.9 °F 40.8 °F 30.16 in NW 3.0 mph 8.0 mph 89 % 0.00 in 62 W/m2
07:00 44.1 °F 41.0 °F 30.16 in NW 2.0 mph 8.0 mph 89 % 0.00 in 69 W/m2
07:05 44.1 °F 41.0 °F 30.16 in NW 2.0 mph 8.0 mph 89 % 0.00 in 72 W/m2
07:10 44.2 °F 41.2 °F 30.16 in NW 3.0 mph 8.0 mph 89 % 0.00 in 76 W/m2
07:15 44.4 °F 41.4 °F 30.16 in NW 3.0 mph 7.0 mph 89 % 0.00 in 72 W/m2
07:20 44.6 °F 41.3 °F 30.16 in NW 3.0 mph 8.0 mph 88 % 0.00 in 60 W/m2
07:25 44.6 °F 41.3 °F 30.16 in NW 4.0 mph 9.0 mph 88 % 0.00 in 72 W/m2
07:30 44.8 °F 41.1 °F 30.16 in NW 5.0 mph 12.0 mph 87 % 0.00 in 100 W/m2
07:35 44.8 °F 41.1 °F 30.17 in WNW 6.0 mph 12.0 mph 87 % 0.00 in 74 W/m2
07:40 44.8 °F 41.1 °F 30.17 in WNW 5.0 mph 9.0 mph 87 % 0.00 in 74 W/m2
07:45 45.0 °F 41.3 °F 30.17 in WNW 4.0 mph 8.0 mph 87 % 0.00 in 77 W/m2
07:50 45.1 °F 41.5 °F 30.17 in NW 4.0 mph 9.0 mph 87 % 0.00 in 97 W/m2
07:55 45.1 °F 41.2 °F 30.17 in NW 4.0 mph 9.0 mph 86 % 0.00 in 100 W/m2
08:00 45.3 °F 41.4 °F 30.17 in NW 4.0 mph 8.0 mph 86 % 0.00 in 109 W/m2
08:05 45.7 °F 41.7 °F 30.17 in WNW 5.0 mph 9.0 mph 86 % 0.00 in 88 W/m2
08:10 45.7 °F 41.7 °F 30.17 in WNW 6.0 mph 10.0 mph 86 % 0.00 in 70 W/m2
08:15 45.9 °F 41.9 °F 30.17 in NW 5.0 mph 10.0 mph 86 % 0.00 in 160 W/m2
08:20 46.0 °F 42.1 °F 30.17 in NW 4.0 mph 8.0 mph 86 % 0.00 in 171 W/m2
08:25 46.4 °F 42.4 °F 30.17 in WNW 4.0 mph 9.0 mph 86 % 0.00 in 165 W/m2
08:30 46.8 °F 42.5 °F 30.17 in NW 5.0 mph 9.0 mph 85 % 0.00 in 176 W/m2
08:31 46.8 °F 42.5 °F 30.17 in NW 5.0 mph 9.0 mph 85 % 0.00 in 195 W/m2
08:36 47.1 °F 42.8 °F 30.17 in NW 6.0 mph 9.0 mph 85 % 0.00 in 207 W/m2
08:41 47.5 °F 43.2 °F 30.17 in NW 4.0 mph 9.0 mph 85 % 0.00 in 218 W/m2
08:46 47.8 °F 43.2 °F 30.17 in NW 4.0 mph 9.0 mph 84 % 0.00 in 251 W/m2
08:51 48.4 °F 43.8 °F 30.17 in NW 5.0 mph 9.0 mph 84 % 0.00 in 251 W/m2
08:56 48.7 °F 43.8 °F 30.17 in NW 5.0 mph 9.0 mph 83 % 0.00 in 239 W/m2
09:01 48.9 °F 43.7 °F 30.17 in NNW 5.0 mph 10.0 mph 82 % 0.00 in 243 W/m2
09:06 49.3 °F 44.0 °F 30.17 in NNW 5.0 mph 10.0 mph 82 % 0.00 in 204 W/m2
09:11 49.5 °F 43.9 °F 30.17 in NNW 5.0 mph 9.0 mph 81 % 0.00 in 185 W/m2
09:16 49.6 °F 44.0 °F 30.17 in NNW 5.0 mph 9.0 mph 81 % 0.00 in 176 W/m2
09:21 49.8 °F 44.2 °F 30.18 in NNW 4.0 mph 10.0 mph 81 % 0.00 in 192 W/m2
09:26 50.2 °F 44.2 °F 30.18 in NNW 6.0 mph 12.0 mph 80 % 0.00 in 163 W/m2
09:32 50.2 °F 44.2 °F 30.18 in NNW 7.0 mph 12.0 mph 80 % 0.00 in 158 W/m2
09:37 50.2 °F 44.2 °F 30.18 in North 6.0 mph 11.0 mph 80 % 0.00 in 174 W/m2
09:42 50.2 °F 44.2 °F 30.18 in North 6.0 mph 11.0 mph 80 % 0.00 in 209 W/m2
09:47 50.4 °F 44.4 °F 30.18 in NNW 6.0 mph 11.0 mph 80 % 0.00 in 218 W/m2
09:52 50.4 °F 44.4 °F 30.18 in NNW 6.0 mph 11.0 mph 80 % 0.00 in 197 W/m2
09:57 50.5 °F 44.3 °F 30.18 in NNW 6.0 mph 13.0 mph 79 % 0.00 in 244 W/m2
10:02 50.7 °F 44.4 °F 30.19 in NNW 5.0 mph 13.0 mph 79 % 0.00 in 241 W/m2
10:07 50.9 °F 44.3 °F 30.19 in NNW 6.0 mph 14.0 mph 78 % 0.00 in 278 W/m2
10:12 51.1 °F 44.5 °F 30.19 in NNW 8.0 mph 14.0 mph 78 % 0.00 in 262 W/m2
10:17 51.1 °F 44.5 °F 30.19 in North 8.0 mph 15.0 mph 78 % 0.00 in 316 W/m2
10:22 51.1 °F 44.1 °F 30.19 in North 7.0 mph 15.0 mph 77 % 0.00 in 274 W/m2
10:27 51.4 °F 44.8 °F 30.19 in NNW 7.0 mph 14.0 mph 78 % 0.00 in 237 W/m2
10:32 51.6 °F 44.6 °F 30.19 in NNW 6.0 mph 14.0 mph 77 % 0.00 in 265 W/m2
10:37 51.8 °F 44.8 °F 30.19 in North 6.0 mph 12.0 mph 77 % 0.00 in 257 W/m2
10:42 51.6 °F 44.6 °F 30.19 in North 7.0 mph 14.0 mph 77 % 0.00 in 294 W/m2
10:47 52.0 °F 45.0 °F 30.19 in NNW 7.0 mph 14.0 mph 77 % 0.00 in 353 W/m2
10:52 52.2 °F 44.8 °F 30.19 in North 5.0 mph 13.0 mph 76 % 0.00 in 360 W/m2
10:57 52.5 °F 45.5 °F 30.20 in North 5.0 mph 13.0 mph 77 % 0.00 in 404 W/m2
11:02 52.9 °F 45.5 °F 30.20 in North 6.0 mph 12.0 mph 76 % 0.00 in 406 W/m2
11:07 52.9 °F 45.2 °F 30.20 in NNE 7.0 mph 12.0 mph 75 % 0.00 in 438 W/m2
11:12 52.5 °F 44.8 °F 30.20 in NNE 7.0 mph 12.0 mph 75 % 0.00 in 387 W/m2
11:17 52.5 °F 45.2 °F 30.20 in NNE 6.0 mph 13.0 mph 76 % 0.00 in 385 W/m2
11:22 52.5 °F 45.2 °F 30.20 in NNE 6.0 mph 13.0 mph 76 % 0.00 in 330 W/m2
11:27 52.3 °F 45.3 °F 30.20 in NNE 7.0 mph 11.0 mph 77 % 0.00 in 311 W/m2
11:32 52.5 °F 45.2 °F 30.20 in NNE 7.0 mph 13.0 mph 76 % 0.00 in 283 W/m2
11:37 52.5 °F 45.2 °F 30.20 in NNE 7.0 mph 13.0 mph 76 % 0.00 in 373 W/m2
11:42 53.1 °F 45.3 °F 30.20 in NNE 7.0 mph 13.0 mph 75 % 0.00 in 434 W/m2
11:47 53.4 °F 45.3 °F 30.20 in North 6.0 mph 12.0 mph 74 % 0.00 in 323 W/m2
11:52 54.3 °F 45.8 °F 30.20 in North 5.0 mph 12.0 mph 73 % 0.00 in 494 W/m2
11:57 54.7 °F 45.8 °F 30.20 in NNE 7.0 mph 14.0 mph 72 % 0.00 in 747 W/m2
12:02 54.9 °F 45.6 °F 30.20 in NNE 7.0 mph 15.0 mph 71 % 0.00 in 390 W/m2
12:07 55.2 °F 46.0 °F 30.20 in NNE 7.0 mph 16.0 mph 71 % 0.00 in 1090 W/m2
12:12 55.8 °F 45.7 °F 30.20 in NNE 8.0 mph 16.0 mph 69 % 0.00 in 568 W/m2
12:17 55.9 °F 45.9 °F 30.20 in NNE 7.0 mph 14.0 mph 69 % 0.00 in 497 W/m2
12:22 56.1 °F 46.1 °F 30.20 in NNE 6.0 mph 13.0 mph 69 % 0.00 in 513 W/m2
12:27 56.7 °F 46.2 °F 30.20 in North 7.0 mph 13.0 mph 68 % 0.00 in 411 W/m2
12:33 56.8 °F 46.0 °F 30.20 in North 6.0 mph 14.0 mph 67 % 0.00 in 510 W/m2
12:38 57.2 °F 46.7 °F 30.20 in North 6.0 mph 14.0 mph 68 % 0.00 in 380 W/m2
12:43 57.4 °F 46.5 °F 30.20 in North 6.0 mph 12.0 mph 67 % 0.00 in 1155 W/m2
12:48 57.2 °F 46.7 °F 30.20 in NNE 8.0 mph 14.0 mph 68 % 0.00 in 501 W/m2
12:53 57.0 °F 46.6 °F 30.19 in North 8.0 mph 15.0 mph 68 % 0.00 in 1044 W/m2
12:58 57.7 °F 47.2 °F 30.20 in North 7.0 mph 15.0 mph 68 % 0.00 in 1204 W/m2
13:03 57.7 °F 46.9 °F 30.20 in North 8.0 mph 19.0 mph 67 % 0.00 in 1209 W/m2
13:08 57.4 °F 46.9 °F 30.20 in NNE 9.0 mph 19.0 mph 68 % 0.00 in 603 W/m2
13:13 56.8 °F 46.8 °F 30.20 in NNE 7.0 mph 14.0 mph 69 % 0.00 in 413 W/m2
13:18 56.7 °F 46.6 °F 30.20 in NNE 6.0 mph 13.0 mph 69 % 0.00 in 374 W/m2
13:23 56.5 °F 46.8 °F 30.20 in NNE 6.0 mph 13.0 mph 70 % 0.00 in 621 W/m2
13:28 56.1 °F 46.5 °F 30.20 in NNE 7.0 mph 19.0 mph 70 % 0.00 in 378 W/m2
13:33 55.8 °F 46.5 °F 30.21 in NNE 8.0 mph 19.0 mph 71 % 0.00 in 392 W/m2
13:38 55.6 °F 47.1 °F 30.21 in NNE 7.0 mph 13.0 mph 73 % 0.00 in 469 W/m2
13:43 55.8 °F 46.9 °F 30.21 in North 7.0 mph 15.0 mph 72 % 0.00 in 443 W/m2
13:48 55.6 °F 46.3 °F 30.21 in NNE 8.0 mph 15.0 mph 71 % 0.00 in 330 W/m2
13:53 55.0 °F 46.5 °F 30.21 in NNE 7.0 mph 14.0 mph 73 % 0.00 in 290 W/m2
13:58 54.7 °F 46.2 °F 30.21 in NNE 6.0 mph 13.0 mph 73 % 0.00 in 334 W/m2
14:03 54.7 °F 46.9 °F 30.21 in NNE 6.0 mph 13.0 mph 75 % 0.00 in 315 W/m2
14:08 54.9 °F 46.7 °F 30.21 in North 6.0 mph 13.0 mph 74 % 0.00 in 318 W/m2
14:15 55.0 °F 46.5 °F 30.21 in NNE 7.0 mph 13.0 mph 73 % 0.00 in 367 W/m2
14:20 55.2 °F 47.1 °F 30.21 in NE 6.0 mph 16.0 mph 74 % 0.00 in 276 W/m2
14:25 55.0 °F 46.9 °F 30.21 in NNE 5.0 mph 16.0 mph 74 % 0.00 in 332 W/m2
14:30 55.0 °F 47.3 °F 30.21 in NNE 7.0 mph 13.0 mph 75 % 0.00 in 647 W/m2
14:35 55.4 °F 47.6 °F 30.21 in NNE 7.0 mph 14.0 mph 75 % 0.00 in 374 W/m2
14:40 55.9 °F 47.4 °F 30.21 in NNE 7.0 mph 14.0 mph 73 % 0.00 in 367 W/m2
14:45 56.1 °F 47.6 °F 30.21 in NNE 7.0 mph 13.0 mph 73 % 0.00 in 360 W/m2
14:50 55.9 °F 47.4 °F 30.21 in NNE 7.0 mph 14.0 mph 73 % 0.00 in 425 W/m2
14:55 55.6 °F 47.4 °F 30.21 in NNE 8.0 mph 16.0 mph 74 % 0.00 in 376 W/m2
15:00 55.0 °F 47.3 °F 30.21 in NE 7.0 mph 16.0 mph 75 % 0.00 in 279 W/m2
15:05 54.5 °F 47.1 °F 30.21 in NNE 7.0 mph 16.0 mph 76 % 0.00 in 352 W/m2
15:10 54.3 °F 47.3 °F 30.21 in NE 7.0 mph 16.0 mph 77 % 0.00 in 325 W/m2
15:15 54.1 °F 46.7 °F 30.21 in NE 7.0 mph 15.0 mph 76 % 0.00 in 320 W/m2
15:20 54.1 °F 47.1 °F 30.21 in NE 6.0 mph 13.0 mph 77 % 0.00 in 350 W/m2
15:25 54.1 °F 47.1 °F 30.22 in NNE 6.0 mph 13.0 mph 77 % 0.00 in 306 W/m2
15:30 54.3 °F 46.6 °F 30.22 in NNE 6.0 mph 16.0 mph 75 % 0.00 in 271 W/m2
15:36 54.0 °F 46.2 °F 30.22 in NNE 7.0 mph 16.0 mph 75 % 0.00 in 232 W/m2
15:41 53.8 °F 46.0 °F 30.22 in NNE 7.0 mph 16.0 mph 75 % 0.00 in 250 W/m2
15:46 53.8 °F 46.0 °F 30.22 in NNE 8.0 mph 13.0 mph 75 % 0.00 in 380 W/m2
15:51 54.1 °F 46.4 °F 30.22 in NNE 7.0 mph 15.0 mph 75 % 0.00 in 322 W/m2
15:56 54.1 °F 46.0 °F 30.22 in NNE 6.0 mph 15.0 mph 74 % 0.00 in 299 W/m2
16:01 54.1 °F 46.4 °F 30.22 in NNE 7.0 mph 15.0 mph 75 % 0.00 in 265 W/m2
16:06 54.1 °F 46.0 °F 30.22 in NNE 7.0 mph 14.0 mph 74 % 0.00 in 218 W/m2
16:11 53.8 °F 46.0 °F 30.22 in NNE 8.0 mph 14.0 mph 75 % 0.00 in 171 W/m2
16:16 53.2 °F 45.5 °F 30.22 in NNE 9.0 mph 20.0 mph 75 % 0.00 in 183 W/m2
16:21 52.9 °F 45.5 °F 30.23 in NNE 10.0 mph 20.0 mph 76 % 0.00 in 155 W/m2
16:26 52.5 °F 45.2 °F 30.23 in NNE 9.0 mph 16.0 mph 76 % 0.00 in 142 W/m2
16:31 52.3 °F 45.3 °F 30.23 in NNE 8.0 mph 15.0 mph 77 % 0.00 in 169 W/m2
16:32 52.3 °F 45.3 °F 30.23 in NNE 7.0 mph 14.0 mph 77 % 0.00 in 186 W/m2
16:37 52.5 °F 45.5 °F 30.23 in NNE 7.0 mph 21.0 mph 77 % 0.00 in 237 W/m2
16:42 52.5 °F 45.2 °F 30.23 in NNE 9.0 mph 21.0 mph 76 % 0.00 in 156 W/m2
16:47 52.5 °F 45.2 °F 30.23 in NNE 8.0 mph 19.0 mph 76 % 0.00 in 107 W/m2
16:52 52.3 °F 45.0 °F 30.23 in NNE 7.0 mph 15.0 mph 76 % 0.00 in 137 W/m2
16:57 52.2 °F 44.8 °F 30.23 in NNE 7.0 mph 15.0 mph 76 % 0.00 in 105 W/m2
17:02 52.0 °F 45.0 °F 30.23 in NNE 7.0 mph 14.0 mph 77 % 0.00 in 120 W/m2
17:07 52.0 °F 45.0 °F 30.23 in NNE 6.0 mph 12.0 mph 77 % 0.00 in 142 W/m2
17:12 52.0 °F 45.0 °F 30.23 in NNE 7.0 mph 12.0 mph 77 % 0.00 in 146 W/m2
17:17 52.0 °F 44.6 °F 30.23 in NNE 7.0 mph 14.0 mph 76 % 0.00 in 153 W/m2
17:22 51.8 °F 44.5 °F 30.23 in NNE 8.0 mph 14.0 mph 76 % 0.00 in 171 W/m2
17:27 51.6 °F 44.6 °F 30.23 in NNE 8.0 mph 13.0 mph 77 % 0.00 in 132 W/m2
17:32 51.8 °F 44.5 °F 30.23 in NNE 6.0 mph 13.0 mph 76 % 0.00 in 121 W/m2
17:37 51.8 °F 44.5 °F 30.23 in NNE 6.0 mph 14.0 mph 76 % 0.00 in 172 W/m2
17:42 51.8 °F 44.5 °F 30.23 in NNE 7.0 mph 14.0 mph 76 % 0.00 in 142 W/m2
17:47 51.8 °F 44.5 °F 30.23 in North 7.0 mph 14.0 mph 76 % 0.00 in 149 W/m2
17:52 51.8 °F 44.1 °F 30.24 in North 7.0 mph 14.0 mph 75 % 0.00 in 113 W/m2
17:57 51.6 °F 44.0 °F 30.24 in NNE 7.0 mph 13.0 mph 75 % 0.00 in 97 W/m2
18:02 51.4 °F 44.1 °F 30.24 in NNE 6.0 mph 11.0 mph 76 % 0.00 in 90 W/m2
18:07 51.3 °F 44.0 °F 30.24 in NNE 6.0 mph 12.0 mph 76 % 0.00 in 120 W/m2
18:12 51.3 °F 44.0 °F 30.24 in NNE 7.0 mph 12.0 mph 76 % 0.00 in 113 W/m2
18:17 51.3 °F 44.0 °F 30.24 in North 6.0 mph 12.0 mph 76 % 0.00 in 120 W/m2
18:22 51.3 °F 43.3 °F 30.24 in NNE 8.0 mph 15.0 mph 74 % 0.00 in 97 W/m2
18:27 51.1 °F 43.1 °F 30.24 in NNE 9.0 mph 16.0 mph 74 % 0.00 in 107 W/m2
18:32 51.1 °F 43.1 °F 30.24 in NNE 8.0 mph 16.0 mph 74 % 0.00 in 98 W/m2
18:38 51.1 °F 43.1 °F 30.24 in NNE 8.0 mph 14.0 mph 74 % 0.00 in 81 W/m2
18:43 51.1 °F 43.1 °F 30.24 in NNE 7.0 mph 14.0 mph 74 % 0.00 in 65 W/m2
18:48 50.9 °F 42.9 °F 30.24 in NE 6.0 mph 11.0 mph 74 % 0.00 in 51 W/m2
18:49 50.7 °F 42.7 °F 30.24 in NE 5.0 mph 11.0 mph 74 % 0.00 in 49 W/m2
18:54 50.7 °F 42.7 °F 30.24 in NNE 6.0 mph 12.0 mph 74 % 0.00 in 47 W/m2
18:59 50.5 °F 42.2 °F 30.24 in NNE 7.0 mph 13.0 mph 73 % 0.00 in 62 W/m2
19:04 50.5 °F 42.6 °F 30.25 in North 7.0 mph 15.0 mph 74 % 0.00 in 62 W/m2
19:09 50.5 °F 42.2 °F 30.25 in North 8.0 mph 15.0 mph 73 % 0.00 in 60 W/m2
19:14 50.5 °F 42.2 °F 30.24 in North 7.0 mph 14.0 mph 73 % 0.00 in 69 W/m2
19:19 50.4 °F 42.0 °F 30.25 in North 7.0 mph 14.0 mph 73 % 0.00 in 63 W/m2
19:25 50.4 °F 42.0 °F 30.24 in NNE 7.0 mph 15.0 mph 73 % 0.00 in 58 W/m2
19:30 50.4 °F 42.0 °F 30.25 in NNE 7.0 mph 15.0 mph 73 % 0.00 in 72 W/m2
19:35 50.4 °F 42.0 °F 30.25 in NNE 6.0 mph 15.0 mph 73 % 0.00 in 42 W/m2
19:40 50.2 °F 41.9 °F 30.25 in NNE 6.0 mph 12.0 mph 73 % 0.00 in 32 W/m2
19:45 49.8 °F 41.5 °F 30.25 in NNE 7.0 mph 15.0 mph 73 % 0.00 in 26 W/m2
19:50 49.8 °F 41.5 °F 30.25 in North 6.0 mph 15.0 mph 73 % 0.00 in 26 W/m2
19:55 49.6 °F 41.7 °F 30.25 in NNE 5.0 mph 10.0 mph 74 % 0.00 in 30 W/m2
20:00 49.5 °F 41.5 °F 30.25 in NNE 4.0 mph 10.0 mph 74 % 0.00 in 28 W/m2
20:05 49.5 °F 41.9 °F 30.25 in NNE 4.0 mph 10.0 mph 75 % 0.00 in 25 W/m2
20:10 49.3 °F 41.7 °F 30.25 in NNE 4.0 mph 11.0 mph 75 % 0.00 in 26 W/m2
20:15 49.3 °F 41.7 °F 30.25 in NNE 5.0 mph 12.0 mph 75 % 0.00 in 35 W/m2
20:20 49.3 °F 42.0 °F 30.25 in NNE 5.0 mph 12.0 mph 76 % 0.00 in 21 W/m2
20:25 48.9 °F 41.7 °F 30.25 in NNE 6.0 mph 13.0 mph 76 % 0.00 in 12 W/m2
20:30 48.7 °F 41.5 °F 30.25 in NNE 7.0 mph 13.0 mph 76 % 0.00 in 9 W/m2
20:31 48.7 °F 41.5 °F 30.25 in NNE 7.0 mph 13.0 mph 76 % 0.00 in 9 W/m2
20:36 48.4 °F 41.2 °F 30.26 in NNE 6.0 mph 13.0 mph 76 % 0.00 in 7 W/m2
20:41 48.2 °F 41.3 °F 30.26 in NNE 5.0 mph 11.0 mph 77 % 0.00 in 7 W/m2
20:46 48.0 °F 41.2 °F 30.26 in North 4.0 mph 11.0 mph 77 % 0.00 in 5 W/m2
20:51 47.8 °F 41.0 °F 30.27 in North 5.0 mph 13.0 mph 77 % 0.00 in 0 W/m2
20:56 47.8 °F 41.0 °F 30.27 in NNE 6.0 mph 13.0 mph 77 % 0.00 in 0 W/m2
21:01 47.7 °F 40.8 °F 30.27 in NNE 5.0 mph 11.0 mph 77 % 0.00 in 0 W/m2
21:06 47.5 °F 40.6 °F 30.27 in NNE 5.0 mph 11.0 mph 77 % 0.00 in 0 W/m2
21:11 47.5 °F 40.6 °F 30.27 in NNE 4.0 mph 12.0 mph 77 % 0.00 in 0 W/m2
21:16 47.1 °F 40.6 °F 30.28 in NNE 6.0 mph 13.0 mph 78 % 0.00 in 0 W/m2
21:21 47.1 °F 40.6 °F 30.28 in NNE 6.0 mph 13.0 mph 78 % 0.00 in 0 W/m2
21:27 46.9 °F 40.4 °F 30.28 in NNE 5.0 mph 12.0 mph 78 % 0.00 in 0 W/m2
21:32 46.9 °F 40.4 °F 30.28 in NNE 5.0 mph 13.0 mph 78 % 0.00 in 0 W/m2
21:37 46.9 °F 40.1 °F 30.29 in North 5.0 mph 13.0 mph 77 % 0.00 in 0 W/m2
21:42 46.8 °F 39.9 °F 30.29 in North 6.0 mph 13.0 mph 77 % 0.00 in 0 W/m2
21:47 46.8 °F 39.9 °F 30.29 in NNE 6.0 mph 12.0 mph 77 % 0.00 in 0 W/m2
21:52 46.6 °F 39.8 °F 30.29 in NNE 6.0 mph 14.0 mph 77 % 0.00 in 0 W/m2
21:57 46.4 °F 39.6 °F 30.29 in NNE 7.0 mph 14.0 mph 77 % 0.00 in 0 W/m2
22:02 46.2 °F 39.4 °F 30.29 in North 7.0 mph 15.0 mph 77 % 0.00 in 0 W/m2
22:07 46.0 °F 39.2 °F 30.29 in North 7.0 mph 15.0 mph 77 % 0.00 in 0 W/m2
22:12 46.0 °F 39.2 °F 30.29 in North 7.0 mph 14.0 mph 77 % 0.00 in 0 W/m2
22:17 45.9 °F 39.1 °F 30.29 in North 6.0 mph 14.0 mph 77 % 0.00 in 0 W/m2
22:22 45.7 °F 38.9 °F 30.29 in North 6.0 mph 15.0 mph 77 % 0.00 in 0 W/m2
22:27 45.5 °F 39.0 °F 30.29 in North 6.0 mph 15.0 mph 78 % 0.00 in 0 W/m2
22:32 45.3 °F 38.9 °F 30.29 in North 6.0 mph 14.0 mph 78 % 0.00 in 0 W/m2
22:37 45.3 °F 38.9 °F 30.30 in North 7.0 mph 15.0 mph 78 % 0.00 in 0 W/m2
22:42 45.3 °F 38.9 °F 30.30 in North 7.0 mph 15.0 mph 78 % 0.00 in 0 W/m2
22:47 45.1 °F 38.7 °F 30.30 in North 6.0 mph 13.0 mph 78 % 0.00 in 0 W/m2
22:52 45.3 °F 38.9 °F 30.30 in North 8.0 mph 16.0 mph 78 % 0.00 in 0 W/m2
22:57 45.3 °F 38.9 °F 30.30 in North 8.0 mph 16.0 mph 78 % 0.00 in 0 W/m2
23:02 45.3 °F 38.9 °F 30.30 in NNW 8.0 mph 15.0 mph 78 % 0.00 in 0 W/m2
23:07 45.3 °F 38.9 °F 30.30 in North 8.0 mph 15.0 mph 78 % 0.00 in 0 W/m2
23:12 45.3 °F 38.9 °F 30.30 in North 7.0 mph 13.0 mph 78 % 0.00 in 0 W/m2
23:17 45.3 °F 38.9 °F 30.30 in North 7.0 mph 13.0 mph 78 % 0.00 in 0 W/m2
23:22 45.3 °F 38.9 °F 30.30 in North 7.0 mph 13.0 mph 78 % 0.00 in 0 W/m2
23:27 45.3 °F 38.9 °F 30.30 in North 6.0 mph 13.0 mph 78 % 0.00 in 0 W/m2
23:32 45.3 °F 38.9 °F 30.30 in North 6.0 mph 12.0 mph 78 % 0.00 in 0 W/m2
23:37 45.3 °F 38.9 °F 30.30 in North 5.0 mph 11.0 mph 78 % 0.00 in 0 W/m2
23:42 45.3 °F 38.9 °F 30.31 in North 5.0 mph 11.0 mph 78 % 0.00 in 0 W/m2
23:47 45.3 °F 38.9 °F 30.31 in North 7.0 mph 13.0 mph 78 % 0.00 in 0 W/m2
23:52 45.3 °F 38.9 °F 30.31 in North 7.0 mph 13.0 mph 78 % 0.00 in 0 W/m2
23:57 45.3 °F 38.9 °F 30.31 in North 6.0 mph 11.0 mph 78 % 0.00 in 0 W/m2
Delerius-Weather
Compliments of Weather Underground - 2.25 mb

Data updates at regular intervals.